Time,TemperatureF,DewpointF,PressureIn,WindDirection,WindDirectionDegrees,WindSpeedMPH,WindSpeedGustMPH,Humidity,HourlyPrecipIn,Conditions,Clouds,dailyrainin,SolarRadiationWatts/m^2,SoftwareType,DateUTC
2013-05-23 00:14:00,62.2,56.0,29.86,SSE,155,2.0,-999.0,79,-99.99,,,0.00,0,weatherlink.com 1.10,2013-05-23 07:14:00,
2013-05-23 00:29:00,62.0,55.0,29.86,South,174,1.0,-999.0,78,-99.99,,,0.00,0,weatherlink.com 1.10,2013-05-23 07:29:00,
2013-05-23 00:44:00,61.8,55.0,29.86,SE,134,0.0,-999.0,78,-99.99,,,0.00,0,weatherlink.com 1.10,2013-05-23 07:44:00,
2013-05-23 00:59:00,61.6,55.0,29.86,SSE,157,0.0,-999.0,78,-99.99,,,0.00,0,weatherlink.com 1.10,2013-05-23 07:59:00,
2013-05-23 01:14:00,61.6,55.0,29.86,SSE,152,1.0,-999.0,78,-99.99,,,0.00,0,weatherlink.com 1.10,2013-05-23 08:14:00,
2013-05-23 01:29:00,61.7,55.0,29.86,South,175,2.0,-999.0,78,-99.99,,,0.00,0,weatherlink.com 1.10,2013-05-23 08:29:00,
2013-05-23 01:44:00,61.8,55.0,29.85,SSE,156,2.0,-999.0,77,-99.99,,,0.00,0,weatherlink.com 1.10,2013-05-23 08:44:00,
2013-05-23 01:59:00,61.8,55.0,29.85,SE,145,1.0,-999.0,79,-99.99,,,0.00,0,weatherlink.com 1.10,2013-05-23 08:59:00,
2013-05-23 02:14:00,61.4,55.0,29.85,SSE,156,0.0,-999.0,80,-99.99,,,0.00,0,weatherlink.com 1.10,2013-05-23 09:14:00,
2013-05-23 02:29:00,61.0,55.0,29.85,SSE,167,0.0,-999.0,80,-99.99,,,0.00,0,weatherlink.com 1.10,2013-05-23 09:29:00,
2013-05-23 02:44:00,60.5,55.0,29.85,SSE,155,0.0,-999.0,81,-99.99,,,0.00,0,weatherlink.com 1.10,2013-05-23 09:44:00,
2013-05-23 02:59:00,60.0,55.0,29.85,SE,143,0.0,-999.0,82,-99.99,,,0.00,0,weatherlink.com 1.10,2013-05-23 09:59:00,
2013-05-23 03:14:00,59.6,54.0,29.84,SSE,162,0.0,-999.0,82,-99.99,,,0.00,0,weatherlink.com 1.10,2013-05-23 10:14:00,
2013-05-23 03:29:00,59.3,54.0,29.84,SSE,152,0.0,-999.0,82,-99.99,,,0.00,0,weatherlink.com 1.10,2013-05-23 10:29:00,
2013-05-23 03:44:00,59.0,54.0,29.84,SSE,158,0.0,-999.0,83,-99.99,,,0.00,0,weatherlink.com 1.10,2013-05-23 10:44:00,
2013-05-23 03:59:00,58.8,54.0,29.84,SSE,158,0.0,-999.0,83,-99.99,,,0.00,0,weatherlink.com 1.10,2013-05-23 10:59:00,
2013-05-23 04:14:00,58.5,53.0,29.85,SSE,158,0.0,-999.0,83,-99.99,,,0.00,0,weatherlink.com 1.10,2013-05-23 11:14:00,
2013-05-23 04:29:00,58.5,54.0,29.84,SSE,158,0.0,-999.0,84,-99.99,,,0.00,0,weatherlink.com 1.10,2013-05-23 11:29:00,
2013-05-23 04:44:00,58.6,54.0,29.85,SSE,158,0.0,-999.0,84,-99.99,,,0.00,0,weatherlink.com 1.10,2013-05-23 11:44:00,
2013-05-23 04:59:00,58.4,54.0,29.85,SSE,158,0.0,-999.0,84,-99.99,,,0.00,0,weatherlink.com 1.10,2013-05-23 11:59:00,
2013-05-23 05:14:00,58.2,53.0,29.86,SSE,158,0.0,-999.0,84,-99.99,,,0.00,0,weatherlink.com 1.10,2013-05-23 12:14:00,
2013-05-23 05:29:00,57.7,53.0,29.86,East,92,0.0,-999.0,83,-99.99,,,0.00,0,weatherlink.com 1.10,2013-05-23 12:29:00,
2013-05-23 05:44:00,57.5,53.0,29.86,East,99,0.0,-999.0,85,-99.99,,,0.00,0,weatherlink.com 1.10,2013-05-23 12:44:00,
2013-05-23 05:59:00,57.3,53.0,29.87,East,99,0.0,-999.0,84,-99.99,,,0.00,9,weatherlink.com 1.10,2013-05-23 12:59:00,
2013-05-23 06:14:00,57.2,53.0,29.87,East,99,0.0,-999.0,85,-99.99,,,0.00,32,weatherlink.com 1.10,2013-05-23 13:14:00,
2013-05-23 06:29:00,57.5,53.0,29.87,SE,141,2.0,-999.0,85,-99.99,,,0.00,62,weatherlink.com 1.10,2013-05-23 13:29:00,
2013-05-23 06:44:00,58.8,53.0,29.88,East,101,0.0,-999.0,82,-99.99,,,0.00,123,weatherlink.com 1.10,2013-05-23 13:44:00,
2013-05-23 06:59:00,60.3,53.0,29.88,ENE,76,2.0,-999.0,78,-99.99,,,0.00,186,weatherlink.com 1.10,2013-05-23 13:59:00,
2013-05-23 07:15:00,61.5,53.0,29.89,East,93,0.0,-999.0,74,-99.99,,,0.00,260,weatherlink.com 1.10,2013-05-23 14:15:00,
2013-05-23 07:30:00,62.8,53.0,29.89,East,79,1.0,-999.0,71,-99.99,,,0.00,232,weatherlink.com 1.10,2013-05-23 14:30:00,
2013-05-23 07:45:00,63.3,53.0,29.89,ENE,67,3.0,-999.0,70,-99.99,,,0.00,218,weatherlink.com 1.10,2013-05-23 14:45:00,
2013-05-23 08:00:00,63.5,53.0,29.89,SE,124,4.0,-999.0,69,-99.99,,,0.00,318,weatherlink.com 1.10,2013-05-23 15:00:00,
2013-05-23 08:15:00,64.1,54.0,29.90,SE,135,5.0,-999.0,69,-99.99,,,0.00,258,weatherlink.com 1.10,2013-05-23 15:15:00,
2013-05-23 08:30:00,64.3,53.0,29.90,SSE,168,4.0,-999.0,67,-99.99,,,0.00,206,weatherlink.com 1.10,2013-05-23 15:30:00,
2013-05-23 08:45:00,64.5,53.0,29.91,SSW,203,3.0,-999.0,66,-99.99,,,0.00,345,weatherlink.com 1.10,2013-05-23 15:45:00,
2013-05-23 09:00:00,64.5,51.0,29.91,South,169,7.0,-999.0,63,-99.99,,,0.00,315,weatherlink.com 1.10,2013-05-23 16:00:00,
2013-05-23 09:15:00,65.3,52.0,29.91,SE,143,0.0,-999.0,62,-99.99,,,0.00,336,weatherlink.com 1.10,2013-05-23 16:15:00,
2013-05-23 09:30:00,65.8,54.0,29.92,SW,231,3.0,-999.0,67,-99.99,,,0.00,803,weatherlink.com 1.10,2013-05-23 16:30:00,
2013-05-23 09:45:00,65.5,55.0,29.92,SSW,194,1.0,-999.0,68,-99.99,,,0.00,454,weatherlink.com 1.10,2013-05-23 16:45:00,
2013-05-23 10:00:00,64.8,54.0,29.92,SSW,212,7.0,-999.0,69,-99.99,,,0.00,248,weatherlink.com 1.10,2013-05-23 17:00:00,
2013-05-23 10:15:00,65.3,55.0,29.92,SSE,158,7.0,-999.0,69,-99.99,,,0.00,889,weatherlink.com 1.10,2013-05-23 17:15:00,
2013-05-23 10:30:00,66.6,55.0,29.92,SSE,159,2.0,-999.0,67,-99.99,,,0.00,837,weatherlink.com 1.10,2013-05-23 17:30:00,
2013-05-23 10:45:00,67.0,54.0,29.92,WSW,237,4.0,-999.0,64,-99.99,,,0.00,865,weatherlink.com 1.10,2013-05-23 17:45:00,
2013-05-23 11:00:00,66.8,54.0,29.92,SSW,193,6.0,-999.0,64,-99.99,,,0.00,886,weatherlink.com 1.10,2013-05-23 18:00:00,
2013-05-23 11:15:00,67.6,54.0,29.92,SW,225,6.0,-999.0,62,-99.99,,,0.00,900,weatherlink.com 1.10,2013-05-23 18:15:00,
2013-05-23 11:30:00,67.2,54.0,29.92,SW,221,2.0,-999.0,63,-99.99,,,0.00,925,weatherlink.com 1.10,2013-05-23 18:30:00,
2013-05-23 11:45:00,67.5,54.0,29.92,West,266,7.0,-999.0,62,-99.99,,,0.00,937,weatherlink.com 1.10,2013-05-23 18:45:00,
2013-05-23 12:00:00,68.7,54.0,29.92,South,176,5.0,-999.0,60,-99.99,,,0.00,944,weatherlink.com 1.10,2013-05-23 19:00:00,
2013-05-23 12:15:00,69.3,54.0,29.92,SSW,194,5.0,-999.0,59,-99.99,,,0.00,958,weatherlink.com 1.10,2013-05-23 19:15:00,
2013-05-23 12:30:00,69.1,54.0,29.92,WSW,237,10.0,-999.0,60,-99.99,,,0.00,962,weatherlink.com 1.10,2013-05-23 19:30:00,
2013-05-23 12:45:00,69.4,54.0,29.92,SSW,192,8.0,-999.0,59,-99.99,,,0.00,960,weatherlink.com 1.10,2013-05-23 19:45:00,
2013-05-23 13:00:00,69.0,54.0,29.92,SW,217,0.0,-999.0,60,-99.99,,,0.00,958,weatherlink.com 1.10,2013-05-23 20:00:00,
2013-05-23 13:15:00,69.0,54.0,29.92,SSE,148,5.0,-999.0,60,-99.99,,,0.00,958,weatherlink.com 1.10,2013-05-23 20:15:00,
2013-05-23 13:30:00,70.9,55.0,29.92,ESE,117,0.0,-999.0,57,-99.99,,,0.00,942,weatherlink.com 1.10,2013-05-23 20:30:00,
2013-05-23 13:45:00,70.4,54.0,29.92,SW,234,10.0,-999.0,56,-99.99,,,0.00,925,weatherlink.com 1.10,2013-05-23 20:45:00,
2013-05-23 14:00:00,70.0,54.0,29.93,SW,226,5.0,-999.0,57,-99.99,,,0.00,912,weatherlink.com 1.10,2013-05-23 21:00:00,
2013-05-23 14:15:00,70.1,54.0,29.92,SSW,208,1.0,-999.0,58,-99.99,,,0.00,879,weatherlink.com 1.10,2013-05-23 21:15:00,
2013-05-23 14:30:00,69.9,55.0,29.92,WSW,245,5.0,-999.0,59,-99.99,,,0.00,861,weatherlink.com 1.10,2013-05-23 21:30:00,
2013-05-23 14:45:00,70.5,55.0,29.92,South,178,5.0,-999.0,58,-99.99,,,0.00,840,weatherlink.com 1.10,2013-05-23 21:45:00,
2013-05-23 15:00:00,70.6,54.0,29.92,WSW,251,7.0,-999.0,57,-99.99,,,0.00,814,weatherlink.com 1.10,2013-05-23 22:00:00,
2013-05-23 15:15:00,69.7,55.0,29.91,SSW,209,5.0,-999.0,59,-99.99,,,0.00,770,weatherlink.com 1.10,2013-05-23 22:15:00,
2013-05-23 15:31:00,70.5,55.0,29.91,SSW,194,7.0,-999.0,58,-99.99,,,0.00,737,weatherlink.com 1.10,2013-05-23 22:31:00,
2013-05-23 15:46:00,70.8,56.0,29.91,South,178,5.0,-999.0,59,-99.99,,,0.00,700,weatherlink.com 1.10,2013-05-23 22:46:00,
2013-05-23 16:01:00,70.7,55.0,29.91,SSW,205,1.0,-999.0,57,-99.99,,,0.00,656,weatherlink.com 1.10,2013-05-23 23:01:00,
2013-05-23 16:16:00,70.3,55.0,29.90,SSW,194,2.0,-999.0,59,-99.99,,,0.00,615,weatherlink.com 1.10,2013-05-23 23:16:00,
2013-05-23 16:31:00,69.8,55.0,29.90,SW,224,6.0,-999.0,60,-99.99,,,0.00,561,weatherlink.com 1.10,2013-05-23 23:31:00,
2013-05-23 16:46:00,69.2,55.0,29.90,South,186,5.0,-999.0,62,-99.99,,,0.00,510,weatherlink.com 1.10,2013-05-23 23:46:00,
2013-05-23 17:01:00,69.9,56.0,29.90,South,188,4.0,-999.0,62,-99.99,,,0.00,469,weatherlink.com 1.10,2013-05-24 00:01:00,
2013-05-23 17:16:00,69.9,56.0,29.90,SW,221,6.0,-999.0,61,-99.99,,,0.00,408,weatherlink.com 1.10,2013-05-24 00:16:00,
2013-05-23 17:31:00,68.7,55.0,29.90,WSW,240,4.0,-999.0,63,-99.99,,,0.00,359,weatherlink.com 1.10,2013-05-24 00:31:00,
2013-05-23 17:46:00,68.5,56.0,29.90,South,183,6.0,-999.0,64,-99.99,,,0.00,306,weatherlink.com 1.10,2013-05-24 00:46:00,
2013-05-23 18:01:00,67.6,55.0,29.90,SSW,195,1.0,-999.0,64,-99.99,,,0.00,211,weatherlink.com 1.10,2013-05-24 01:01:00,
2013-05-23 18:16:00,66.8,55.0,29.90,SSW,201,1.0,-999.0,65,-99.99,,,0.00,93,weatherlink.com 1.10,2013-05-24 01:16:00,
2013-05-23 18:31:00,66.2,54.0,29.90,WSW,258,4.0,-999.0,66,-99.99,,,0.00,127,weatherlink.com 1.10,2013-05-24 01:31:00,
2013-05-23 18:46:00,65.7,54.0,29.90,SW,234,2.0,-999.0,67,-99.99,,,0.00,44,weatherlink.com 1.10,2013-05-24 01:46:00,
2013-05-23 19:01:00,64.8,54.0,29.91,WSW,243,2.0,-999.0,68,-99.99,,,0.00,44,weatherlink.com 1.10,2013-05-24 02:01:00,
2013-05-23 19:16:00,63.9,54.0,29.91,SW,214,0.0,-999.0,70,-99.99,,,0.00,23,weatherlink.com 1.10,2013-05-24 02:16:00,
2013-05-23 19:31:00,63.7,54.0,29.92,SSW,202,0.0,-999.0,71,-99.99,,,0.00,14,weatherlink.com 1.10,2013-05-24 02:31:00,
2013-05-23 19:46:00,63.4,54.0,29.92,SSW,194,0.0,-999.0,72,-99.99,,,0.00,5,weatherlink.com 1.10,2013-05-24 02:46:00,
2013-05-23 20:01:00,63.1,54.0,29.92,SSW,194,0.0,-999.0,72,-99.99,,,0.00,0,weatherlink.com 1.10,2013-05-24 03:01:00,
2013-05-23 20:16:00,62.7,54.0,29.92,SSW,194,0.0,-999.0,72,-99.99,,,0.00,0,weatherlink.com 1.10,2013-05-24 03:16:00,
2013-05-23 20:31:00,62.0,53.0,29.93,SSW,194,0.0,-999.0,73,-99.99,,,0.00,0,weatherlink.com 1.10,2013-05-24 03:31:00,
2013-05-23 20:46:00,61.1,52.0,29.93,SSE,155,0.0,-999.0,73,-99.99,,,0.00,0,weatherlink.com 1.10,2013-05-24 03:46:00,
2013-05-23 21:01:00,60.3,52.0,29.93,SSE,155,0.0,-999.0,75,-99.99,,,0.00,0,weatherlink.com 1.10,2013-05-24 04:01:00,
2013-05-23 21:16:00,59.7,52.0,29.94,SSE,155,0.0,-999.0,76,-99.99,,,0.00,0,weatherlink.com 1.10,2013-05-24 04:16:00,
2013-05-23 21:31:00,59.3,52.0,29.95,SSE,155,0.0,-999.0,77,-99.99,,,0.00,0,weatherlink.com 1.10,2013-05-24 04:31:00,
2013-05-23 21:46:00,58.9,52.0,29.95,SSE,155,0.0,-999.0,78,-99.99,,,0.00,0,weatherlink.com 1.10,2013-05-24 04:46:00,
2013-05-23 22:01:00,58.7,52.0,29.96,SSE,155,0.0,-999.0,79,-99.99,,,0.00,0,weatherlink.com 1.10,2013-05-24 05:01:00,
2013-05-23 22:16:00,58.6,52.0,29.96,SSE,155,0.0,-999.0,79,-99.99,,,0.00,0,weatherlink.com 1.10,2013-05-24 05:16:00,
2013-05-23 22:31:00,58.4,52.0,29.96,SSE,155,0.0,-999.0,80,-99.99,,,0.00,0,weatherlink.com 1.10,2013-05-24 05:31:00,
2013-05-23 22:46:00,58.2,52.0,29.96,SSE,155,0.0,-999.0,81,-99.99,,,0.00,0,weatherlink.com 1.10,2013-05-24 05:46:00,
2013-05-23 23:01:00,58.3,52.0,29.96,SSE,155,0.0,-999.0,80,-99.99,,,0.00,0,weatherlink.com 1.10,2013-05-24 06:01:00,
2013-05-23 23:16:00,58.3,52.0,29.96,SSE,155,0.0,-999.0,80,-99.99,,,0.00,0,weatherlink.com 1.10,2013-05-24 06:16:00,
2013-05-23 23:31:00,58.5,52.0,29.96,SSE,155,0.0,-999.0,80,-99.99,,,0.00,0,weatherlink.com 1.10,2013-05-24 06:31:00,
2013-05-23 23:46:00,58.7,53.0,29.95,SSE,155,0.0,-999.0,80,-99.99,,,0.00,0,weatherlink.com 1.10,2013-05-24 06:46:00,